Time;durP1;ratioP1;P1;durP2;ratioP2;P2;SDS_P1;SDS_P2;PMS_P1;PMS_P2;Temp;Humidity;BMP_temperature;BMP_pressure;BME280_temperature;BME280_humidity;BME280_pressure;Samples;Min_cycle;Max_cycle;Signal;HPM_P1;HPM_P2
2021/06/12 00:02:15;;;;;;;5.70;5.20;;;20.50;75.30;;;;;;5084125;28;27368;-69
2021/06/12 00:05:00;;;;;;;7.65;5.10;;;20.50;75.10;;;;;;5080847;28;27403;-69
2021/06/12 00:07:44;;;;;;;9.00;5.55;;;20.40;75.20;;;;;;5084849;28;27340;-69
2021/06/12 00:10:32;;;;;;;9.30;5.30;;;20.40;75.20;;;;;;5083665;28;27331;-69
2021/06/12 00:13:16;;;;;;;7.95;5.30;;;20.40;75.40;;;;;;5083699;28;27483;-69
2021/06/12 00:16:01;;;;;;;5.53;5.03;;;20.40;75.20;;;;;;5083992;28;27510;-69
2021/06/12 00:18:46;;;;;;;5.57;5.07;;;20.40;75.40;;;;;;5083299;28;27324;-69
2021/06/12 00:21:30;;;;;;;5.65;5.15;;;20.30;75.00;;;;;;5083859;28;27482;-69
2021/06/12 00:24:18;;;;;;;5.40;4.93;;;20.30;75.20;;;;;;5084561;28;27359;-70
2021/06/12 00:27:03;;;;;;;5.82;5.32;;;20.30;75.40;;;;;;5068299;28;27616;-70
2021/06/12 00:29:49;;;;;;;6.35;5.68;;;20.20;75.50;;;;;;5080320;28;27500;-70
2021/06/12 00:32:34;;;;;;;5.82;5.30;;;20.20;75.50;;;;;;5083923;28;27582;-70
2021/06/12 00:35:18;;;;;;;6.30;5.70;;;20.20;75.40;;;;;;5080325;28;27470;-70
2021/06/12 00:38:03;;;;;;;6.32;5.60;;;20.10;75.70;;;;;;5083152;28;27459;-72
2021/06/12 00:40:47;;;;;;;7.40;6.38;;;20.10;75.50;;;;;;5083073;28;27509;-70
2021/06/12 00:43:32;;;;;;;5.70;5.20;;;20.10;75.40;;;;;;5083576;28;27431;-70
2021/06/12 00:46:17;;;;;;;7.68;5.35;;;20.00;75.50;;;;;;5084004;28;26873;-70
2021/06/12 00:49:02;;;;;;;6.30;5.55;;;20.00;75.70;;;;;;5082738;28;27425;-70
2021/06/12 00:51:49;;;;;;;6.97;5.60;;;20.00;75.70;;;;;;5084022;28;27409;-70
2021/06/12 00:54:35;;;;;;;9.27;5.80;;;20.00;75.40;;;;;;5082595;28;27774;-70
2021/06/12 00:57:20;;;;;;;6.70;6.10;;;19.90;75.40;;;;;;5083327;28;27435;-70
2021/06/12 01:00:06;;;;;;;7.47;6.13;;;19.90;75.50;;;;;;5083812;28;27426;-70
2021/06/12 01:02:50;;;;;;;8.93;6.00;;;19.90;75.70;;;;;;5094298;27;27422;-70
2021/06/12 01:05:38;;;;;;;9.38;6.00;;;19.90;75.70;;;;;;5083152;28;27663;-70
2021/06/12 01:08:25;;;;;;;6.18;5.57;;;19.90;75.80;;;;;;5083868;28;27396;-70
2021/06/12 01:11:10;;;;;;;9.02;5.68;;;19.80;75.60;;;;;;5079768;28;27392;-70
2021/06/12 01:14:05;;;;;;;8.13;6.38;;;19.80;75.50;;;;;;5082743;28;27348;-70
2021/06/12 01:17:01;;;;;;;11.13;6.13;;;19.70;75.80;;;;;;5082687;28;27510;-70
2021/06/12 01:20:09;;;;;;;8.13;6.00;;;19.70;75.40;;;;;;5083154;28;27444;-70
2021/06/12 01:23:12;;;;;;;7.10;6.38;;;19.70;75.60;;;;;;5082577;28;27481;-71
2021/06/12 01:26:33;;;;;;;6.82;5.55;;;19.70;75.60;;;;;;5083620;28;27411;-72
2021/06/12 01:29:39;;;;;;;7.05;6.45;;;19.60;75.70;;;;;;5082520;28;27415;-70
2021/06/12 01:32:23;;;;;;;6.88;6.18;;;19.60;75.70;;;;;;5064906;28;27399;-71
2021/06/12 01:35:48;;;;;;;7.25;6.28;;;19.60;76.00;;;;;;5082822;28;27428;-70
2021/06/12 01:38:38;;;;;;;8.73;6.25;;;19.60;75.70;;;;;;5080083;28;28051;-70
2021/06/12 01:41:22;;;;;;;7.35;6.40;;;19.50;76.00;;;;;;5097034;27;27452;-69
2021/06/12 01:44:07;;;;;;;6.90;6.30;;;19.50;76.10;;;;;;5083529;28;27443;-69
2021/06/12 01:46:52;;;;;;;6.72;5.93;;;19.50;76.10;;;;;;5096877;27;27419;-69
2021/06/12 01:49:37;;;;;;;7.15;6.43;;;19.40;76.00;;;;;;5093457;27;27849;-69
2021/06/12 01:52:22;;;;;;;7.30;5.60;;;19.50;76.00;;;;;;5093243;28;27442;-69
2021/06/12 01:55:07;;;;;;;11.07;6.57;;;19.40;75.70;;;;;;5068339;28;27495;-69
2021/06/12 01:57:54;;;;;;;8.25;5.70;;;19.40;76.10;;;;;;5082420;28;27422;-69
2021/06/12 02:00:42;;;;;;;6.90;5.90;;;19.40;76.40;;;;;;5084768;28;27475;-69
2021/06/12 02:03:27;;;;;;;7.40;6.65;;;19.30;76.30;;;;;;5068460;28;27368;-68
2021/06/12 02:06:18;;;;;;;6.32;5.72;;;19.30;76.30;;;;;;5085922;28;27399;-69
2021/06/12 02:09:04;;;;;;;15.15;6.85;;;19.30;76.20;;;;;;5100603;27;27456;-69
2021/06/12 02:11:48;;;;;;;7.35;6.75;;;19.30;76.40;;;;;;5068163;28;27477;-68
2021/06/12 02:14:36;;;;;;;6.50;5.90;;;19.30;76.40;;;;;;5086143;28;27674;-68
2021/06/12 02:17:20;;;;;;;8.98;6.18;;;19.30;76.70;;;;;;5068151;28;27412;-68
2021/06/12 02:20:07;;;;;;;11.88;6.50;;;19.20;76.70;;;;;;5068263;28;27411;-68
2021/06/12 02:22:55;;;;;;;7.43;6.50;;;19.20;76.70;;;;;;5086212;28;27362;-68
2021/06/12 02:25:40;;;;;;;7.90;6.25;;;19.20;76.70;;;;;;5100051;27;27398;-68
2021/06/12 02:28:33;;;;;;;6.60;6.00;;;19.20;76.60;;;;;;5071521;28;27411;-68
2021/06/12 02:31:31;;;;;;;8.20;7.07;;;19.20;76.60;;;;;;5068801;28;27391;-69
2021/06/12 02:34:15;;;;;;;8.02;6.53;;;19.10;76.80;;;;;;5085285;28;27370;-68
2021/06/12 02:37:00;;;;;;;7.53;6.82;;;19.10;76.60;;;;;;5085481;28;27451;-68
2021/06/12 02:39:45;;;;;;;7.57;6.68;;;19.10;76.70;;;;;;5067423;28;27328;-68
2021/06/12 02:42:33;;;;;;;8.68;6.85;;;19.10;76.50;;;;;;5084811;28;27690;-68
2021/06/12 02:45:18;;;;;;;7.32;6.70;;;19.00;76.70;;;;;;5099404;27;27873;-68
2021/06/12 02:48:06;;;;;;;6.57;5.93;;;19.00;76.90;;;;;;5085798;28;27519;-68
2021/06/12 02:50:50;;;;;;;9.50;6.55;;;19.00;77.00;;;;;;5081740;28;27409;-68
2021/06/12 02:53:37;;;;;;;6.43;5.55;;;19.00;77.00;;;;;;5085148;28;27439;-68
2021/06/12 02:56:25;;;;;;;8.18;6.75;;;19.00;77.10;;;;;;5084881;28;27435;-69
2021/06/12 02:59:11;;;;;;;7.25;6.55;;;19.00;77.10;;;;;;5085690;28;27407;-67
2021/06/12 03:01:55;;;;;;;7.40;6.10;;;19.00;76.90;;;;;;5085535;28;27317;-68
2021/06/12 03:04:44;;;;;;;7.70;6.00;;;18.90;77.20;;;;;;5099530;27;27328;-67
2021/06/12 03:07:30;;;;;;;7.28;6.32;;;18.90;76.80;;;;;;5084819;28;27472;-68
2021/06/12 03:10:16;;;;;;;7.25;5.75;;;18.90;76.70;;;;;;5084059;28;27515;-68
2021/06/12 03:13:05;;;;;;;7.53;6.82;;;18.90;76.80;;;;;;5099523;27;27485;-68
2021/06/12 03:15:50;;;;;;;7.38;6.68;;;18.80;76.90;;;;;;5084503;28;27328;-68
2021/06/12 03:18:34;;;;;;;7.38;6.68;;;18.80;76.80;;;;;;5098823;27;27390;-68
2021/06/12 03:21:26;;;;;;;7.93;7.13;;;18.80;76.90;;;;;;5098857;27;27443;-69
2021/06/12 03:24:11;;;;;;;8.02;7.22;;;18.80;76.90;;;;;;5081201;28;27336;-69
2021/06/12 03:27:00;;;;;;;6.65;5.93;;;18.70;77.10;;;;;;5098752;27;27333;-70
2021/06/12 03:29:45;;;;;;;10.93;6.38;;;18.70;76.90;;;;;;5084634;28;27893;-70
2021/06/12 03:32:29;;;;;;;7.57;6.78;;;18.70;76.90;;;;;;5098612;27;27420;-69
2021/06/12 03:35:14;;;;;;;6.97;6.32;;;18.70;76.90;;;;;;5099051;27;27323;-69
2021/06/12 03:37:59;;;;;;;10.00;6.32;;;18.70;77.20;;;;;;5084707;28;27311;-70
2021/06/12 03:40:43;;;;;;;11.25;6.80;;;18.70;77.30;;;;;;5080985;28;27825;-70
2021/06/12 03:43:31;;;;;;;8.32;6.55;;;18.60;77.10;;;;;;5084981;28;27402;-70
2021/06/12 03:46:17;;;;;;;9.05;6.93;;;18.60;77.10;;;;;;5084831;28;27522;-70
2021/06/12 03:49:06;;;;;;;7.88;6.65;;;18.60;77.40;;;;;;5066601;28;27539;-69
2021/06/12 03:51:50;;;;;;;11.63;7.38;;;18.60;78.30;;;;;;5084241;28;27431;-69
2021/06/12 03:54:35;;;;;;;9.77;6.25;;;18.60;77.30;;;;;;5098710;27;27485;-69
2021/06/12 03:57:20;;;;;;;6.93;6.30;;;18.60;77.30;;;;;;5083986;28;27363;-69
2021/06/12 04:00:09;;;;;;;7.18;6.47;;;18.50;77.70;;;;;;5098358;27;27480;-69
2021/06/12 04:02:56;;;;;;;7.80;7.10;;;18.60;77.90;;;;;;5083682;28;27427;-69
2021/06/12 04:05:44;;;;;;;7.57;6.53;;;18.50;78.00;;;;;;5097597;27;27597;-69
2021/06/12 04:08:29;;;;;;;8.32;6.90;;;18.50;77.80;;;;;;5084846;28;27522;-69
2021/06/12 04:11:16;;;;;;;7.72;6.78;;;18.50;77.90;;;;;;5069442;28;27448;-69
2021/06/12 04:14:04;;;;;;;9.65;8.20;;;18.50;77.90;;;;;;5069697;28;27364;-69
2021/06/12 04:16:48;;;;;;;10.88;7.85;;;18.50;78.00;;;;;;5080432;28;27396;-69
2021/06/12 04:19:33;;;;;;;8.10;7.30;;;18.50;77.80;;;;;;5083383;28;27387;-71
2021/06/12 04:22:17;;;;;;;9.02;8.15;;;18.50;78.20;;;;;;5083774;28;27422;-69
2021/06/12 04:25:03;;;;;;;8.27;7.47;;;18.50;78.20;;;;;;5080529;28;27417;-69
2021/06/12 04:27:50;;;;;;;8.15;7.15;;;18.50;79.00;;;;;;5083735;28;27421;-69
2021/06/12 04:30:38;;;;;;;8.07;7.03;;;18.50;78.40;;;;;;5084595;28;27328;-71
2021/06/12 04:33:23;;;;;;;10.88;8.55;;;18.40;78.30;;;;;;5083540;28;27647;-69
2021/06/12 04:36:07;;;;;;;8.07;6.97;;;18.40;78.20;;;;;;5083240;28;27419;-69
2021/06/12 04:38:52;;;;;;;10.88;7.65;;;18.40;78.00;;;;;;5083058;28;27481;-71
2021/06/12 04:41:39;;;;;;;14.68;7.85;;;18.40;78.30;;;;;;5080484;28;27472;-69
2021/06/12 04:44:26;;;;;;;9.48;8.00;;;18.40;78.60;;;;;;5084021;28;27419;-70
2021/06/12 04:47:11;;;;;;;13.48;8.30;;;18.40;78.80;;;;;;5083405;28;27332;-70
2021/06/12 04:49:56;;;;;;;12.25;7.95;;;18.40;78.80;;;;;;5065608;28;27337;-70
2021/06/12 04:52:41;;;;;;;8.43;7.63;;;18.40;78.90;;;;;;5083442;28;27438;-69
2021/06/12 04:55:25;;;;;;;7.47;6.78;;;18.40;79.00;;;;;;5068886;28;27429;-69
2021/06/12 04:58:10;;;;;;;9.23;7.63;;;18.50;79.30;;;;;;5083520;28;27869;-69
2021/06/12 05:00:57;;;;;;;9.68;8.18;;;18.50;79.70;;;;;;5079924;28;27530;-69
2021/06/12 05:03:42;;;;;;;11.73;8.13;;;18.50;80.30;;;;;;5068841;28;27400;-69
2021/06/12 05:06:26;;;;;;;8.68;7.88;;;18.60;79.90;;;;;;5084185;28;27389;-69
2021/06/12 05:09:10;;;;;;;8.45;7.47;;;18.60;79.30;;;;;;5083180;28;27479;-69
2021/06/12 05:11:58;;;;;;;9.65;8.20;;;18.70;80.00;;;;;;5083804;28;27524;-69
2021/06/12 05:14:46;;;;;;;8.35;7.55;;;18.70;80.40;;;;;;5083679;28;27398;-69
2021/06/12 05:17:30;;;;;;;9.30;7.95;;;18.70;80.20;;;;;;5097185;27;27340;-70
2021/06/12 05:20:15;;;;;;;11.23;8.18;;;18.80;80.50;;;;;;5082736;28;27336;-69
2021/06/12 05:23:00;;;;;;;8.80;7.95;;;18.80;81.00;;;;;;5083638;28;27500;-69
2021/06/12 05:25:44;;;;;;;8.48;7.68;;;18.80;81.30;;;;;;5083477;28;27586;-70
2021/06/12 05:28:29;;;;;;;9.25;8.27;;;18.80;81.50;;;;;;5082979;28;27380;-69
2021/06/12 05:31:15;;;;;;;8.35;7.60;;;18.90;80.70;;;;;;5065241;28;27857;-69
2021/06/12 05:34:00;;;;;;;10.98;8.82;;;18.90;79.90;;;;;;5082973;28;27363;-69
2021/06/12 05:36:45;;;;;;;12.23;9.27;;;18.90;80.00;;;;;;5083274;28;27333;-69
2021/06/12 05:39:29;;;;;;;12.27;9.40;;;19.00;81.00;;;;;;5100698;27;27454;-68
2021/06/12 05:42:13;;;;;;;9.93;8.73;;;19.00;80.40;;;;;;5087137;28;27336;-69
2021/06/12 05:44:58;;;;;;;11.52;9.20;;;19.10;80.70;;;;;;5083216;28;27542;-69
2021/06/12 05:47:45;;;;;;;10.35;9.30;;;19.10;81.40;;;;;;5068704;28;27397;-70
2021/06/12 05:50:32;;;;;;;11.90;9.88;;;19.20;81.70;;;;;;5086868;28;27374;-70
2021/06/12 05:53:17;;;;;;;10.82;9.73;;;19.30;82.00;;;;;;5085787;28;27932;-69
2021/06/12 05:56:02;;;;;;;11.07;9.98;;;19.40;82.00;;;;;;5086101;28;27498;-70
2021/06/12 05:58:46;;;;;;;12.20;10.48;;;19.50;81.80;;;;;;5086015;28;27494;-70
2021/06/12 06:01:31;;;;;;;11.52;9.50;;;19.50;82.20;;;;;;5085905;28;27476;-70
2021/06/12 06:04:15;;;;;;;11.77;10.57;;;19.70;82.20;;;;;;5085730;28;27361;-71
2021/06/12 06:06:59;;;;;;;11.40;9.82;;;19.80;83.00;;;;;;5086709;28;27379;-70
2021/06/12 06:09:44;;;;;;;12.18;10.45;;;19.90;83.00;;;;;;5086507;28;27329;-70
2021/06/12 06:12:30;;;;;;;14.10;10.20;;;20.10;82.80;;;;;;5086330;28;27404;-71
2021/06/12 06:15:15;;;;;;;12.63;11.35;;;20.20;83.40;;;;;;5086658;28;27841;-71
2021/06/12 06:18:02;;;;;;;11.63;10.20;;;20.20;83.40;;;;;;5085343;28;27402;-71
2021/06/12 06:20:49;;;;;;;11.38;10.27;;;20.40;83.40;;;;;;5086578;28;27462;-72
2021/06/12 06:23:34;;;;;;;11.80;10.63;;;20.50;83.80;;;;;;5096625;28;27493;-72
2021/06/12 06:26:18;;;;;;;10.93;9.90;;;20.60;84.10;;;;;;5085424;28;27424;-71
2021/06/12 06:29:03;;;;;;;11.52;10.43;;;20.60;83.80;;;;;;5068459;28;27490;-71
2021/06/12 06:31:47;;;;;;;14.07;10.35;;;20.80;83.60;;;;;;5086718;28;27434;-72
2021/06/12 06:34:34;;;;;;;10.75;9.75;;;20.90;83.50;;;;;;5085730;28;27489;-72
2021/06/12 06:37:22;;;;;;;11.30;9.30;;;21.10;83.40;;;;;;5085772;28;27509;-72
2021/06/12 06:40:07;;;;;;;16.65;10.48;;;21.30;84.20;;;;;;5085672;28;27369;-72
2021/06/12 06:42:54;;;;;;;12.70;11.48;;;21.50;84.30;;;;;;5086470;28;27454;-72
2021/06/12 06:45:40;;;;;;;12.85;10.88;;;21.60;83.60;;;;;;5085777;28;27407;-73
2021/06/12 06:48:27;;;;;;;11.32;10.23;;;21.70;82.90;;;;;;5085629;28;27387;-73
2021/06/12 06:51:12;;;;;;;12.02;10.73;;;21.90;83.70;;;;;;5086757;28;27458;-73
2021/06/12 06:53:57;;;;;;;11.88;10.52;;;22.00;85.90;;;;;;5086333;28;27516;-73
2021/06/12 06:56:44;;;;;;;12.38;11.18;;;22.20;86.80;;;;;;5086267;28;27415;-73
2021/06/12 06:59:30;;;;;;;11.27;9.52;;;22.40;85.00;;;;;;5086383;28;28071;-73
2021/06/12 07:02:14;;;;;;;11.60;10.48;;;22.60;84.70;;;;;;5085581;28;27406;-75
2021/06/12 07:05:02;;;;;;;12.15;10.90;;;22.70;84.60;;;;;;5086507;28;27475;-72
2021/06/12 07:07:47;;;;;;;13.00;10.25;;;22.90;86.10;;;;;;5085353;28;27353;-72
2021/06/12 07:10:41;;;;;;;11.63;10.30;;;23.10;85.30;;;;;;5085330;28;28000;-72
2021/06/12 07:13:25;;;;;;;11.27;9.55;;;23.30;82.60;;;;;;5085714;28;27391;-72
2021/06/12 07:16:10;;;;;;;11.43;10.30;;;23.50;82.60;;;;;;5086008;28;27424;-72
2021/06/12 07:18:57;;;;;;;9.80;8.90;;;23.70;83.20;;;;;;5085042;28;27401;-72
2021/06/12 07:21:44;;;;;;;10.60;8.63;;;23.80;82.80;;;;;;5085837;28;27378;-72
2021/06/12 07:24:30;;;;;;;10.45;9.55;;;23.90;81.70;;;;;;5086119;28;27417;-72
2021/06/12 07:27:15;;;;;;;10.23;9.20;;;24.00;81.90;;;;;;5081834;28;27339;-72
2021/06/12 07:30:04;;;;;;;10.52;9.38;;;24.00;84.50;;;;;;5086128;28;27403;-72
2021/06/12 07:32:51;;;;;;;11.05;9.95;;;24.20;84.70;;;;;;5084803;28;27598;-72
2021/06/12 07:35:35;;;;;;;9.48;8.65;;;24.40;84.90;;;;;;5085903;28;27501;-71
2021/06/12 07:38:20;;;;;;;12.63;9.20;;;24.50;84.40;;;;;;5085598;28;27503;-72
2021/06/12 07:41:04;;;;;;;10.85;9.85;;;24.60;83.10;;;;;;5084533;28;27489;-72
2021/06/12 07:43:49;;;;;;;10.65;9.05;;;24.70;83.30;;;;;;5085501;28;27415;-72
2021/06/12 07:46:35;;;;;;;10.10;9.20;;;24.90;83.70;;;;;;5084719;28;27516;-72
2021/06/12 07:49:19;;;;;;;9.60;8.70;;;25.00;82.50;;;;;;5084740;28;27466;-72
2021/06/12 07:52:04;;;;;;;9.95;8.98;;;25.20;81.50;;;;;;5085682;28;27404;-73
2021/06/12 07:54:49;;;;;;;9.32;7.97;;;25.50;82.30;;;;;;5084894;28;27464;-73
2021/06/12 07:57:33;;;;;;;9.07;8.20;;;25.70;81.90;;;;;;5083621;28;27428;-72
2021/06/12 08:00:19;;;;;;;9.10;8.10;;;25.90;81.40;;;;;;5084500;28;27470;-72
2021/06/12 08:03:04;;;;;;;8.30;7.60;;;26.10;81.30;;;;;;5085526;28;27458;-72
2021/06/12 08:05:48;;;;;;;11.15;8.43;;;26.30;80.30;;;;;;5066999;28;27408;-72
2021/06/12 08:08:33;;;;;;;8.95;8.05;;;26.60;80.30;;;;;;5085163;28;27404;-73
2021/06/12 08:11:20;;;;;;;9.13;8.25;;;26.70;79.40;;;;;;5085497;28;27454;-73
2021/06/12 08:14:05;;;;;;;9.82;7.35;;;26.80;78.60;;;;;;5098642;28;27524;-73
2021/06/12 08:16:52;;;;;;;10.43;8.35;;;26.90;78.90;;;;;;5084379;28;27532;-73
2021/06/12 08:19:39;;;;;;;8.88;7.82;;;27.10;81.40;;;;;;5084356;28;27598;-73
2021/06/12 08:22:24;;;;;;;8.82;7.65;;;27.30;79.70;;;;;;5084999;28;27364;-74
2021/06/12 08:25:09;;;;;;;8.70;7.80;;;27.50;79.10;;;;;;5084082;28;27426;-74
2021/06/12 08:27:54;;;;;;;8.80;7.60;;;27.70;78.40;;;;;;5085009;28;27402;-74
2021/06/12 08:30:39;;;;;;;10.55;7.50;;;27.90;79.00;;;;;;5112831;27;27483;-75
2021/06/12 08:33:24;;;;;;;7.68;6.90;;;28.10;79.00;;;;;;5083420;28;27643;-75
2021/06/12 08:36:08;;;;;;;8.88;6.38;;;28.30;78.80;;;;;;5084447;28;27371;-72
2021/06/12 08:38:52;;;;;;;7.13;6.53;;;28.30;77.60;;;;;;5083683;28;27344;-76
2021/06/12 08:41:39;;;;;;;6.57;6.07;;;28.50;77.90;;;;;;5084673;28;27398;-77
2021/06/12 08:44:27;;;;;;;11.60;6.53;;;28.60;78.20;;;;;;5084898;28;27351;-76
2021/06/12 08:47:12;;;;;;;9.68;6.05;;;28.80;78.10;;;;;;5084541;28;27428;-77
2021/06/12 08:49:57;;;;;;;6.70;5.93;;;29.00;78.20;;;;;;5083957;28;27431;-78
2021/06/12 08:52:42;;;;;;;7.03;5.68;;;29.10;78.00;;;;;;5065904;28;27502;-77
2021/06/12 08:55:29;;;;;;;8.25;5.43;;;29.20;77.90;;;;;;5084935;28;27621;-78
2021/06/12 08:58:14;;;;;;;5.72;5.18;;;29.20;77.10;;;;;;5084561;28;27585;-76
2021/06/12 09:00:58;;;;;;;5.65;5.25;;;29.10;77.60;;;;;;5066158;28;27419;-77
2021/06/12 09:03:44;;;;;;;5.50;5.00;;;29.20;77.80;;;;;;5084282;28;27451;-78
2021/06/12 09:06:28;;;;;;;7.78;5.88;;;29.30;79.40;;;;;;5080329;28;27490;-77
2021/06/12 09:09:13;;;;;;;6.53;5.60;;;29.30;77.40;;;;;;5084316;28;27414;-78
2021/06/12 09:11:58;;;;;;;7.78;5.72;;;29.30;80.00;;;;;;5098190;27;27470;-77
2021/06/12 09:15:07;;;;;;;7.25;5.57;;;29.30;79.60;;;;;;5083336;28;27484;-76
2021/06/12 09:17:54;;;;;;;6.60;5.80;;;29.40;81.50;;;;;;5083574;28;27593;-76
2021/06/12 09:20:43;;;;;;;6.53;5.30;;;29.50;82.00;;;;;;5084439;28;27363;-77
2021/06/12 09:23:27;;;;;;;6.10;5.50;;;29.60;82.40;;;;;;5083274;28;27520;-77
2021/06/12 09:26:13;;;;;;;5.90;5.30;;;29.70;81.40;;;;;;5097995;27;27490;-77
2021/06/12 09:29:02;;;;;;;13.43;5.60;;;29.90;79.80;;;;;;5080116;28;27399;-73
2021/06/12 09:31:50;;;;;;;7.55;5.80;;;29.90;59.70;;;;;;5096452;27;27695;-75
2021/06/12 09:34:34;;;;;;;10.10;5.15;;;30.10;56.40;;;;;;5083362;28;27351;-75
2021/06/12 09:37:23;;;;;;;15.85;6.22;;;30.20;53.80;;;;;;5083852;28;27516;-68
2021/06/12 09:40:12;;;;;;;10.85;5.53;;;30.30;54.20;;;;;;5083572;28;27443;-76
2021/06/12 09:42:58;;;;;;;11.05;4.90;;;30.30;54.20;;;;;;5083822;28;26897;-72
2021/06/12 09:45:42;;;;;;;10.32;5.35;;;30.30;61.00;;;;;;5083007;28;27419;-74
2021/06/12 09:48:27;;;;;;;5.47;3.97;;;30.30;63.00;;;;;;5079933;28;27407;-73
2021/06/12 09:51:14;;;;;;;6.32;4.00;;;30.20;65.80;;;;;;5082971;28;27383;-72
2021/06/12 09:54:02;;;;;;;4.57;3.28;;;30.30;69.60;;;;;;5082956;28;27332;-73
2021/06/12 09:56:58;;;;;;;5.25;3.58;;;30.20;70.20;;;;;;5083149;28;27459;-72
2021/06/12 09:59:47;;;;;;;4.30;3.90;;;30.20;70.80;;;;;;5080010;28;27485;-72
2021/06/12 10:02:44;;;;;;;6.97;3.50;;;30.30;72.80;;;;;;5083205;28;27341;-73
2021/06/12 10:05:31;;;;;;;3.90;3.38;;;30.30;73.30;;;;;;5082840;28;27417;-72
2021/06/12 10:08:16;;;;;;;5.00;3.30;;;30.10;75.20;;;;;;5083058;28;27337;-72
2021/06/12 10:11:07;;;;;;;3.08;2.78;;;29.90;76.20;;;;;;5083718;28;27481;-71
2021/06/12 10:14:00;;;;;;;5.40;2.78;;;29.80;76.80;;;;;;5082790;28;27470;-72
2021/06/12 10:16:55;;;;;;;3.33;2.85;;;29.90;78.00;;;;;;5083346;28;27538;-72
2021/06/12 10:19:44;;;;;;;6.50;2.75;;;30.10;75.00;;;;;;5068907;28;27454;-73
2021/06/12 10:22:46;;;;;;;3.10;2.53;;;30.30;74.40;;;;;;5086379;28;27461;-70
2021/06/12 10:25:38;;;;;;;3.45;2.30;;;30.50;75.50;;;;;;5082837;28;27399;-73
2021/06/12 10:28:43;;;;;;;3.10;2.42;;;30.60;76.80;;;;;;5085541;28;27426;-73
2021/06/12 10:31:47;;;;;;;2.50;2.30;;;30.60;75.40;;;;;;5086295;28;27459;-73
2021/06/12 10:34:41;;;;;;;3.75;2.22;;;30.70;75.20;;;;;;5084890;28;27515;-73
2021/06/12 10:37:29;;;;;;;3.22;2.60;;;30.90;74.70;;;;;;5085911;28;27372;-73
2021/06/12 10:40:18;;;;;;;3.05;2.53;;;31.00;75.10;;;;;;5068778;28;27555;-73
2021/06/12 10:43:19;;;;;;;2.35;2.15;;;31.10;76.40;;;;;;5082951;28;27411;-72
2021/06/12 10:46:06;;;;;;;2.85;2.53;;;31.10;74.10;;;;;;5072283;28;27439;-72
2021/06/12 10:49:31;;;;;;;2.42;2.00;;;31.10;74.50;;;;;;5086512;28;27395;-72
2021/06/12 10:52:43;;;;;;;2.65;2.15;;;31.10;74.60;;;;;;5085958;28;27369;-71
2021/06/12 10:56:00;;;;;;;3.30;1.95;;;31.10;75.00;;;;;;5071394;28;27912;-72
2021/06/12 10:58:52;;;;;;;3.22;2.78;;;31.40;72.20;;;;;;5067970;28;27337;-73
2021/06/12 11:02:16;;;;;;;3.38;1.90;;;31.40;70.60;;;;;;5068186;28;27416;-73
2021/06/12 11:05:10;;;;;;;3.08;1.98;;;31.40;71.30;;;;;;5085683;28;27403;-73
2021/06/12 11:08:22;;;;;;;6.05;2.13;;;31.60;71.80;;;;;;5072166;28;27449;-72
2021/06/12 11:11:33;;;;;;;2.45;1.95;;;31.70;70.20;;;;;;5086066;28;27400;-73
2021/06/12 11:14:27;;;;;;;2.40;2.20;;;31.90;69.70;;;;;;5071590;28;27426;-73
2021/06/12 11:17:23;;;;;;;2.35;2.15;;;32.10;69.10;;;;;;5085986;28;27504;-74
2021/06/12 11:20:16;;;;;;;3.17;2.08;;;32.20;68.60;;;;;;5085200;28;27844;-74
2021/06/12 11:23:07;;;;;;;4.57;2.25;;;32.30;69.50;;;;;;5085109;28;27493;-73
2021/06/12 11:26:02;;;;;;;2.08;1.98;;;32.40;69.30;;;;;;5071736;28;27430;-74
2021/06/12 11:29:11;;;;;;;3.55;1.90;;;32.60;69.80;;;;;;5084970;28;27327;-74
2021/06/12 11:32:30;;;;;;;2.03;1.85;;;32.60;69.70;;;;;;5067718;28;27346;-74
2021/06/12 11:35:45;;;;;;;1.60;1.50;;;32.70;69.10;;;;;;5085637;28;27431;-74
2021/06/12 11:38:35;;;;;;;2.35;1.90;;;32.80;68.80;;;;;;5071014;28;27400;-73
2021/06/12 11:41:47;;;;;;;1.95;1.75;;;32.80;69.50;;;;;;5085125;28;27344;-74
2021/06/12 11:44:39;;;;;;;3.92;2.00;;;33.00;69.80;;;;;;5084769;28;27992;-71
2021/06/12 11:47:32;;;;;;;2.95;1.80;;;33.00;68.40;;;;;;5084662;28;27447;-74
2021/06/12 11:50:55;;;;;;;3.40;1.90;;;33.00;66.60;;;;;;5084158;28;27411;-75
2021/06/12 11:54:21;;;;;;;1.75;1.65;;;33.00;67.80;;;;;;5075638;28;27462;-74
2021/06/12 11:57:21;;;;;;;2.13;1.70;;;33.00;71.40;;;;;;5068164;28;27853;-74
2021/06/12 12:00:47;;;;;;;2.45;1.85;;;33.00;69.50;;;;;;5084201;28;27496;-74
2021/06/12 12:03:40;;;;;;;1.88;1.77;;;33.00;69.60;;;;;;5071031;28;27394;-74
2021/06/12 12:06:39;;;;;;;1.75;1.63;;;32.90;67.00;;;;;;5084672;28;27426;-74
2021/06/12 12:09:41;;;;;;;3.63;2.17;;;32.90;67.00;;;;;;5084666;28;27412;-74
2021/06/12 12:12:32;;;;;;;3.25;1.63;;;32.90;70.10;;;;;;5084703;28;27402;-74
2021/06/12 12:15:44;;;;;;;4.03;1.40;;;33.00;68.90;;;;;;5098670;27;27465;-74
2021/06/12 12:18:54;;;;;;;7.72;1.50;;;33.10;65.30;;;;;;5070526;28;27382;-75
2021/06/12 12:21:49;;;;;;;1.40;1.30;;;33.20;63.60;;;;;;5085148;28;27474;-75
2021/06/12 12:24:37;;;;;;;2.08;1.42;;;33.30;63.40;;;;;;5071172;28;27506;-75
2021/06/12 12:27:27;;;;;;;3.40;1.60;;;33.30;65.40;;;;;;5084404;28;27386;-75
2021/06/12 12:30:26;;;;;;;2.15;1.55;;;33.20;65.00;;;;;;5070321;28;27477;-75
2021/06/12 12:33:25;;;;;;;3.78;1.60;;;33.20;66.60;;;;;;5070402;28;27455;-75
2021/06/12 12:36:17;;;;;;;4.43;1.60;;;33.20;64.70;;;;;;5066603;28;27436;-75
2021/06/12 12:39:05;;;;;;;1.45;1.17;;;33.20;64.50;;;;;;5070619;28;27436;-75
2021/06/12 12:42:07;;;;;;;2.00;1.52;;;33.20;64.20;;;;;;5070363;28;27329;-75
2021/06/12 12:44:58;;;;;;;1.02;0.93;;;33.20;59.80;;;;;;5069812;28;27351;-75
2021/06/12 12:47:48;;;;;;;1.52;1.30;;;33.20;60.20;;;;;;5067146;28;27464;-76
2021/06/12 12:50:38;;;;;;;5.22;1.33;;;33.20;60.20;;;;;;5070221;28;27333;-76
2021/06/12 12:53:25;;;;;;;2.08;1.42;;;33.10;60.00;;;;;;5083764;28;27477;-75
2021/06/12 12:56:21;;;;;;;7.25;1.73;;;33.00;60.20;;;;;;5083743;28;27871;-73
2021/06/12 12:59:52;;;;;;;2.05;1.50;;;33.00;59.10;;;;;;5080250;28;27352;-73
2021/06/12 13:02:51;;;;;;;1.83;1.30;;;33.10;57.40;;;;;;5083714;28;27400;-73
2021/06/12 13:05:49;;;;;;;2.15;1.50;;;33.10;58.30;;;;;;5070910;28;27411;-73
2021/06/12 13:08:40;;;;;;;1.73;1.35;;;33.10;57.20;;;;;;5070537;28;27861;-75
2021/06/12 13:11:29;;;;;;;2.25;1.50;;;33.20;58.80;;;;;;5053908;28;27522;-74
2021/06/12 13:14:33;;;;;;;1.98;1.13;;;33.20;59.40;;;;;;5083868;28;27333;-74
2021/06/12 13:17:24;;;;;;;2.60;1.27;;;33.20;58.70;;;;;;5084062;28;27421;-75
2021/06/12 13:20:49;;;;;;;3.53;1.48;;;33.20;59.30;;;;;;5083371;28;27439;-75
2021/06/12 13:23:41;;;;;;;1.58;1.23;;;33.20;60.00;;;;;;5080734;28;27415;-75
2021/06/12 13:26:52;;;;;;;;;;;;;;;;;;;;;
2021/06/12 13:29:54;;;;;;;2.03;0.93;;;33.10;60.80;;;;;;5083816;28;27411;-75
2021/06/12 13:32:55;;;;;;;1.90;1.10;;;33.10;59.70;;;;;;5082952;28;27840;-75
2021/06/12 13:36:03;;;;;;;1.77;1.00;;;33.00;59.80;;;;;;5070489;28;27411;-74
2021/06/12 13:39:01;;;;;;;2.58;1.25;;;33.00;59.20;;;;;;5082921;28;27344;-74
2021/06/12 13:41:52;;;;;;;1.48;1.20;;;33.00;59.50;;;;;;5069453;28;27333;-74
2021/06/12 13:44:46;;;;;;;2.08;1.33;;;33.00;58.90;;;;;;5066592;28;27981;-74
2021/06/12 13:47:37;;;;;;;2.70;1.40;;;33.00;59.20;;;;;;5097590;27;27316;-74
2021/06/12 13:50:27;;;;;;;1.40;1.30;;;33.10;58.60;;;;;;5083787;28;27340;-74
2021/06/12 13:53:17;;;;;;;2.40;1.25;;;33.10;59.10;;;;;;5083286;28;27461;-74
2021/06/12 13:56:27;;;;;;;2.22;1.10;;;33.10;60.00;;;;;;5098648;27;27360;-74
2021/06/12 13:59:21;;;;;;;3.17;0.93;;;33.10;56.70;;;;;;5057502;28;27512;-74
2021/06/12 14:02:10;;;;;;;1.45;1.20;;;33.00;56.40;;;;;;5069427;28;27523;-73
2021/06/12 14:05:01;;;;;;;2.55;1.00;;;32.90;56.80;;;;;;5086418;28;27477;-73
2021/06/12 14:07:49;;;;;;;2.13;1.40;;;32.80;57.70;;;;;;5086271;28;27398;-73
2021/06/12 14:10:37;;;;;;;4.05;1.00;;;32.80;58.70;;;;;;5086318;28;27502;-73
2021/06/12 14:13:30;;;;;;;4.18;1.20;;;32.70;57.40;;;;;;5100758;27;27409;-73
2021/06/12 14:16:21;;;;;;;2.13;1.10;;;32.80;55.20;;;;;;5086559;28;27355;-74
2021/06/12 14:19:13;;;;;;;1.45;1.20;;;32.80;57.50;;;;;;5072443;28;27511;-73
2021/06/12 14:22:06;;;;;;;2.28;1.02;;;32.70;56.30;;;;;;5082851;28;27406;-72
2021/06/12 14:24:57;;;;;;;3.05;1.13;;;32.70;56.40;;;;;;5086387;28;27380;-73
2021/06/12 14:28:15;;;;;;;2.30;1.17;;;32.70;56.10;;;;;;5082741;28;27367;-72
2021/06/12 14:31:36;;;;;;;2.88;1.20;;;32.70;55.00;;;;;;5078257;28;27420;-79
2021/06/12 14:34:31;;;;;;;4.38;1.17;;;32.70;56.10;;;;;;5084249;28;27447;-73
2021/06/12 14:37:22;;;;;;;2.17;1.10;;;32.70;58.20;;;;;;5055980;28;27466;-72
2021/06/12 14:40:22;;;;;;;1.20;1.10;;;32.60;58.30;;;;;;5085708;28;27383;-72
2021/06/12 14:43:12;;;;;;;3.03;1.23;;;32.60;57.80;;;;;;5085970;28;27480;-73
2021/06/12 14:46:01;;;;;;;1.50;1.00;;;32.60;57.20;;;;;;5100386;27;27359;-71